Latest Weather Observations for Archerfield

IDQ60801

Issued at 6:02 pm EST Sunday 4 December 2016 (issued every 30 minutes, with the page automatically refreshed every 10 minutes)

About weather observations | Map of weather stations | Latest weather observations for QLD | Other Formats
Station Details ID: 040211 Name: ARCHERFIELD AIRPORT Lat: -27.57 Lon: 153.01 Height: 12.5 m
Data from the previous 72 hours. | See also: Recent months at Archerfield
Date/Time
EST
Temp
°C
App
Temp
°C
Dew
Point
°C
Rel
Hum
%
Delta-T
°C
Wind Press
QNH
hPa
Press
MSL
hPa
Rain since
9am
mm
Dir  Spd
km/h
Gust
km/h
Spd
kts
Gust
kts
04/06:00pm 25.6 23.8 21.1 76 3.0 NNE 32 41 17 22 1013.2 1013.1 0.0
04/05:30pm 26.7 25.3 21.2 72 3.6 NE 30 41 16 22 1013.0 1012.9 0.0
04/05:00pm 27.2 25.4 21.2 69 4.0 NNE 32 39 17 21 1012.7 1012.6 0.0
04/04:30pm 28.4 27.4 21.2 65 4.8 NNE 28 39 15 21 1012.5 1012.4 0.0
04/04:00pm 28.6 26.9 21.4 65 4.8 NNE 32 41 17 22 1012.5 1012.4 0.0
04/03:30pm 28.9 27.8 21.1 62 5.2 NNE 28 35 15 19 1012.7 1012.6 0.0
04/03:00pm 29.4 27.8 20.8 60 5.7 NNE 30 35 16 19 1012.6 1012.5 0.0
04/02:30pm 29.7 29.1 20.5 57 6.1 NE 24 39 13 21 1012.7 1012.6 0.0
04/02:00pm 30.1 29.3 20.9 57 6.1 NNE 26 33 14 18 1012.8 1012.7 0.0
04/01:30pm 29.9 29.8 20.7 57 6.1 NNE 22 39 12 21 1013.0 1012.9 0.0
04/01:00pm 30.3 30.8 20.8 56 6.3 NNE 19 32 10 17 1013.2 1013.1 0.0
04/12:30pm 30.7 31.6 20.9 56 6.5 NE 17 28 9 15 1013.6 1013.5 0.0
04/12:00pm 30.4 30.9 20.9 57 6.3 ENE 19 26 10 14 1014.1 1014.0 0.0
04/11:30am 29.9 29.8 19.9 55 6.6 NE 20 28 11 15 1014.5 1014.4 0.0
04/11:00am 30.1 31.4 20.9 57 6.1 NE 15 24 8 13 1014.8 1014.7 0.0
04/10:30am 28.9 30.4 18.9 54 6.5 NNE 9 15 5 8 1015.2 1015.1 0.0
04/10:00am 28.6 29.0 19.0 56 6.2 NNE 15 22 8 12 1015.5 1015.4 0.0
04/09:30am 28.2 28.2 19.7 60 5.5 NNE 19 24 10 13 1015.5 1015.4 0.0
04/09:00am 28.1 28.9 19.9 61 5.4 NNE 15 20 8 11 1015.6 1015.5 27.8
04/08:30am 27.0 28.1 18.8 60 5.3 NE 11 20 6 11 1015.6 1015.5 27.8
04/08:00am 26.7 28.5 20.3 68 4.2 NE 11 15 6 8 1015.6 1015.5 27.8
04/07:30am 25.7 28.8 21.1 76 3.0 N 6 17 3 9 1015.8 1015.7 27.8
04/07:00am 24.0 27.1 19.5 76 2.9 NE 2 6 1 3 1015.8 1015.7 27.8
04/06:30am 22.5 25.3 18.9 80 2.3 NNE 2 6 1 3 1015.8 1015.7 27.8
04/06:00am 21.5 23.9 18.7 84 1.8 W 4 7 2 4 1015.7 1015.6 27.8
04/05:30am 20.7 23.5 18.8 89 1.2 NW 2 6 1 3 1015.3 1015.2 27.8
04/05:00am 19.7 21.2 18.0 90 1.0 N 7 11 4 6 1015.2 1015.1 27.8
04/04:30am 20.0 21.2 18.3 90 1.1 E 9 13 5 7 1014.9 1014.8 27.8
04/04:00am 20.1 22.0 18.6 91 0.9 WSW 6 9 3 5 1014.2 1014.1 27.8
04/03:30am 20.4 21.0 18.7 90 1.1 WSW 13 17 7 9 1013.9 1013.8 27.8
04/03:00am 20.7 21.8 18.8 89 1.2 S 11 17 6 9 1013.9 1013.8 27.8
04/02:30am 21.1 23.0 19.7 92 0.9 S 9 11 5 6 1013.9 1013.8 27.8
04/02:00am 21.4 23.0 20.0 92 0.9 WSW 11 13 6 7 1013.7 1013.6 27.8
04/01:30am 21.7 23.5 20.3 92 0.9 WSW 11 13 6 7 1014.2 1014.1 27.8
04/01:00am 21.2 23.4 19.7 91 1.0 NW 7 11 4 6 1014.2 1014.1 27.8
04/12:30am 21.7 23.4 20.2 91 1.0 WSW 11 15 6 8 1015.1 1015.0 27.8
04/12:00am 21.8 24.3 19.9 89 1.2 SSE 6 15 3 8 1015.0 1014.9 27.8
 
Date/Time
EST
Temp
°C
App
Temp
°C
Dew
Point
°C
Rel
Hum
%
Delta-T
°C
Wind Press
QNH
hPa
Press
MSL
hPa
Rain since
9am
mm
Dir  Spd
km/h
Gust
km/h
Spd
kts
Gust
kts
03/11:30pm 21.3 23.6 19.4 89 1.2 WNW 6 9 3 5 1015.2 1015.1 27.8
03/11:00pm 21.7 24.1 19.6 88 1.3 WSW 6 7 3 4 1016.5 1016.4 27.8
03/10:30pm 21.6 23.8 19.7 89 1.2 NNW 7 9 4 5 1016.5 1016.4 27.8
03/10:00pm 22.4 25.7 19.9 86 1.6 S 2 6 1 3 1017.3 1017.2 27.8
03/09:30pm 22.7 26.0 20.0 85 1.7 SSW 2 9 1 5 1017.6 1017.5 27.8
03/09:00pm 22.8 24.1 19.2 80 2.3 SSW 11 15 6 8 1017.8 1017.7 27.8
03/08:30pm 23.6 23.7 18.3 72 3.3 SSW 15 20 8 11 1017.1 1017.0 27.8
03/08:00pm 23.7 23.4 17.4 68 3.9 NNW 15 28 8 15 1015.3 1015.2 27.6
03/07:53pm 23.3 23.1 17.7 71 3.5 WNW 15 24 8 13 1015.4 1015.3 27.6
03/07:30pm 23.6 21.5 17.1 67 4.0 ENE 24 44 13 24 1013.3 1013.2 27.6
03/07:13pm 23.8 20.7 17.5 68 3.9 NE 30 54 16 29 1012.2 1012.1 27.6
03/07:07pm 23.8 21.5 18.4 72 3.4 ENE 28 41 15 22 1012.7 1012.6 27.6
03/07:00pm 23.1 19.0 19.1 78 2.5 ENE 39 59 21 32 1012.9 1012.8 27.6
03/06:50pm 22.0 18.1 19.5 86 1.6 E 39 59 21 32 1012.3 1012.2 27.6
03/06:48pm 21.9 19.2 19.6 87 1.5 E 33 52 18 28 1013.0 1012.9 27.6
03/06:44pm 21.9 21.3 19.8 88 1.3 SE 22 37 12 20 1015.0 1014.9 27.6
03/06:38pm 22.1 23.7 20.0 88 1.3 SSW 11 19 6 10 1016.9 1016.8 27.2
03/06:30pm 22.1 22.1 19.8 87 1.5 SW 19 32 10 17 1017.2 1017.1 26.6
03/06:14pm 22.8 19.7 19.6 82 2.0 WSW 35 57 19 31 1017.4 1017.3 23.4
03/06:01pm 23.4 20.9 19.8 80 2.3 W 32 69 17 37 1016.9 1016.8 20.2
03/06:00pm 23.3 21.4 20.1 82 2.1 NNW 30 69 16 37 1016.7 1016.6 20.2
03/05:58pm 23.1 22.3 20.1 83 1.9 NE 24 69 13 37 1016.3 1016.2 20.2
03/05:57pm 23.1 23.1 21.0 88 1.4 NE 22 43 12 23 1015.4 1015.3 20.2
03/05:54pm 23.1 21.9 20.8 87 1.5 NE 28 46 15 25 1012.4 1012.3 20.2
03/05:31pm 22.2 20.6 20.8 92 0.9 NE 30 46 16 25 1012.6 1012.5 20.0
03/05:30pm 22.3 20.3 20.8 91 1.0 NE 32 50 17 27 1012.7 1012.6 20.0
03/05:27pm 22.3 20.0 20.6 90 1.1 NE 33 52 18 28 1012.6 1012.5 19.8
03/05:21pm 22.8 21.0 21.6 93 0.8 E 33 52 18 28 1012.0 1011.9 17.8
03/05:09pm 22.4 19.1 21.6 95 0.5 SSE 41 70 22 38 1014.1 1014.0 13.6
03/05:06pm 22.5 18.6 21.5 94 0.7 S 44 70 24 38 1015.1 1015.0 10.4
03/05:01pm 22.6 18.6 20.9 90 1.1 S 43 70 23 38 1015.1 1015.0 2.6
03/05:00pm 22.5 18.5 20.2 87 1.5 S 41 70 22 38 1014.9 1014.8 1.4
03/04:55pm 24.9 21.3 19.3 71 3.6 SSW 37 59 20 32 1014.1 1014.0 0.0
03/04:53pm 25.4 22.4 19.1 68 4.0 SSW 33 59 18 32 1013.8 1013.7 0.0
03/04:48pm 26.6 25.0 19.2 64 4.8 E 26 59 14 32 1013.4 1013.3 0.0
03/04:43pm 26.5 23.7 20.3 68 4.1 NE 35 61 19 33 1011.4 1011.3 0.0
03/04:30pm 26.8 22.5 20.4 68 4.2 NNE 43 61 23 33 1009.2 1009.1 0.0
03/04:24pm 27.2 23.9 20.0 64 4.7 NNE 37 56 20 30 1009.3 1009.2 0.0
03/04:00pm 28.5 24.8 20.0 60 5.6 NNE 39 52 21 28 1009.6 1009.5 0.0
03/03:30pm 29.4 26.2 20.3 58 6.0 NNE 37 50 20 27 1009.5 1009.4 0.0
03/03:00pm 29.7 26.9 20.3 57 6.2 NNE 35 44 19 24 1010.7 1010.6 0.0
03/02:30pm 30.1 28.0 20.9 57 6.1 NNE 33 44 18 24 1011.1 1011.0 0.0
03/02:00pm 30.7 29.7 21.2 57 6.4 NNE 28 39 15 21 1011.6 1011.5 0.0
03/01:30pm 30.3 29.6 21.1 58 6.1 NE 26 37 14 20 1012.2 1012.1 0.0
03/01:00pm 30.9 30.8 21.4 57 6.4 NNE 24 35 13 19 1012.4 1012.3 0.0
03/12:30pm 31.4 32.4 21.8 56 6.5 NNE 19 30 10 16 1012.9 1012.8 0.0
03/12:00pm 31.0 32.2 21.5 57 6.4 NNE 17 26 9 14 1013.3 1013.2 0.0
03/11:30am 30.9 32.0 21.9 58 6.1 NE 19 28 10 15 1013.6 1013.5 0.0
03/11:00am 29.5 30.7 20.6 58 5.9 NNE 15 22 8 12 1014.1 1014.0 0.0
03/10:30am 28.1 29.4 20.9 65 4.8 ENE 15 19 8 10 1014.5 1014.4 0.0
03/10:00am 27.9 30.8 21.7 69 4.1 NE 9 17 5 9 1015.0 1014.9 0.0
03/09:30am 26.6 28.9 21.4 73 3.5 NE 11 17 6 9 1015.3 1015.2 0.0
03/09:13am 26.1 28.0 21.3 75 3.2 NNE 13 17 7 9 1015.1 1015.0 0.0
03/09:00am 26.4 30.1 21.4 74 3.3 NNW 4 7 2 4 1015.2 1015.1 0.0
03/08:30am 25.8 29.0 21.2 76 3.0 ENE 6 11 3 6 1015.4 1015.3 0.0
03/08:00am 25.5 28.2 21.4 78 2.7 NNE 9 13 5 7 1015.0 1014.9 0.0
03/07:30am 25.1 28.7 21.2 79 2.6 NW 4 9 2 5 1015.1 1015.0 0.0
03/07:00am 24.9 27.1 21.2 80 2.4 NNW 11 17 6 9 1014.7 1014.6 0.0
03/06:30am 24.8 26.7 21.3 81 2.3 N 13 15 7 8 1014.3 1014.2 0.0
03/06:00am 24.6 26.4 21.1 81 2.3 N 13 17 7 9 1013.9 1013.8 0.0
03/05:30am 24.4 26.2 21.1 82 2.2 N 13 17 7 9 1013.6 1013.5 0.0
03/05:00am 24.3 26.1 21.2 83 2.0 NNE 13 17 7 9 1013.1 1013.0 0.0
03/04:30am 24.2 26.0 21.1 83 2.0 NNE 13 17 7 9 1012.6 1012.5 0.0
03/04:00am 24.2 25.6 21.1 83 2.0 NNE 15 22 8 12 1012.2 1012.1 0.0
03/03:30am 24.4 26.3 21.3 83 2.0 NNE 13 15 7 8 1011.9 1011.8 0.0
03/03:00am 24.6 26.2 21.5 83 2.1 NE 15 17 8 9 1011.8 1011.7 0.0
03/02:30am 24.7 27.2 21.8 84 1.9 NNE 11 17 6 9 1012.0 1011.9 0.0
03/02:00am 24.7 26.7 21.6 83 2.1 N 13 17 7 9 1012.1 1012.0 0.0
03/01:30am 24.7 25.6 21.6 83 2.1 NNE 19 22 10 12 1012.0 1011.9 0.0
03/01:00am 24.7 26.5 21.8 84 1.9 NE 15 20 8 11 1012.4 1012.3 0.0
03/12:30am 24.9 26.7 21.8 83 2.1 NE 15 19 8 10 1012.5 1012.4 0.0
03/12:00am 24.9 27.2 22.0 84 1.9 NE 13 19 7 10 1012.5 1012.4 0.0
 
Date/Time
EST
Temp
°C
App
Temp
°C
Dew
Point
°C
Rel
Hum
%
Delta-T
°C
Wind Press
QNH
hPa
Press
MSL
hPa
Rain since
9am
mm
Dir  Spd
km/h
Gust
km/h
Spd
kts
Gust
kts
02/11:30pm 24.8 26.7 22.1 85 1.8 NE 15 19 8 10 1012.6 1012.5 0.0
02/11:00pm 24.8 26.4 22.1 85 1.8 NNE 17 20 9 11 1012.9 1012.8 0.0
02/10:59pm 24.7 26.2 22.0 85 1.8 NNE 17 20 9 11 1012.9 1012.8 0.0
02/10:30pm 24.7 25.6 22.0 85 1.8 NNE 20 26 11 14 1012.7 1012.6 0.0
02/10:17pm 24.7 25.8 22.0 85 1.8 NNE 19 24 10 13 1012.8 1012.7 0.0
02/10:00pm 24.9 25.9 21.8 83 2.1 NE 19 24 10 13 1013.0 1012.9 0.0
02/09:30pm 25.2 26.1 21.9 82 2.2 ENE 20 26 11 14 1013.1 1013.0 0.0
02/09:00pm 25.1 26.1 21.8 82 2.2 ENE 19 24 10 13 1012.9 1012.8 0.0
02/08:48pm 25.1 26.5 21.8 82 2.2 ENE 17 22 9 12 1012.7 1012.6 0.0
02/08:30pm 24.9 25.6 21.6 82 2.2 NE 20 26 11 14 1012.5 1012.4 0.0
02/08:00pm 25.1 25.4 21.6 81 2.3 NE 22 32 12 17 1011.8 1011.7 0.0
02/07:30pm 25.1 25.7 21.4 80 2.4 NE 20 28 11 15 1011.5 1011.4 0.0
02/07:00pm 25.5 25.7 21.4 78 2.7 NE 22 32 12 17 1011.0 1010.9 0.0
02/06:30pm 25.8 25.9 21.2 76 3.0 NE 22 33 12 18 1010.5 1010.4 0.0
02/06:00pm 26.3 25.7 21.3 74 3.3 NE 26 33 14 18 1010.1 1010.0 0.0
02/05:30pm 27.1 25.3 21.2 70 3.9 NNE 32 41 17 22 1009.6 1009.5 0.0
02/05:00pm 28.2 26.0 20.7 63 5.0 NNE 33 43 18 23 1009.2 1009.1 0.0
02/04:30pm 28.9 26.8 20.9 62 5.3 NNE 33 43 18 23 1009.0 1008.9 0.0
02/04:00pm 29.9 28.8 21.0 59 5.9 NE 28 35 15 19 1009.0 1008.9 0.0
02/03:30pm 29.8 27.6 20.4 57 6.2 NE 32 39 17 21 1008.9 1008.8 0.0
02/03:00pm 29.9 27.7 20.7 57 6.1 NNE 33 41 18 22 1009.2 1009.1 0.0
02/02:30pm 29.8 28.0 20.4 57 6.2 NNE 30 35 16 19 1009.5 1009.4 0.0
02/02:00pm 29.9 28.8 21.0 59 5.9 NE 28 39 15 21 1009.7 1009.6 0.0
02/01:30pm 30.6 29.9 21.1 57 6.4 NNE 26 33 14 18 1009.8 1009.7 0.0
02/01:00pm 30.4 30.2 21.2 58 6.2 NNE 24 33 13 18 1010.1 1010.0 0.0
02/12:30pm 30.6 29.9 20.2 53 6.9 NNE 24 33 13 18 1010.1 1010.0 0.0
02/12:00pm 30.5 30.3 19.8 52 7.0 N 20 30 11 16 1010.5 1010.4 0.0
02/11:30am 30.5 29.8 18.6 49 7.7 N 20 28 11 15 1010.7 1010.6 0.0
02/11:00am 30.4 31.2 18.2 48 7.8 NNW 11 19 6 10 1011.0 1010.9 0.0
02/10:30am 30.0 30.1 17.5 47 7.9 N 13 20 7 11 1011.5 1011.4 0.0
02/10:00am 29.1 30.2 17.9 50 7.1 NNE 9 13 5 7 1011.7 1011.6 0.0
02/09:30am 28.8 30.2 18.6 54 6.6 E 9 15 5 8 1011.8 1011.7 0.0
02/09:00am 27.3 28.1 17.2 54 6.3 NE 9 13 5 7 1012.3 1012.2 0.2
02/08:30am 26.7 28.0 17.5 57 5.8 NNE 7 11 4 6 1012.4 1012.3 0.2
02/08:00am 26.1 27.2 17.2 58 5.6 NW 7 11 4 6 1012.5 1012.4 0.2
02/07:30am 25.1 26.5 17.3 62 4.9 WNW 6 11 3 6 1012.5 1012.4 0.2
02/07:00am 23.6 24.8 17.3 67 3.9 N 7 9 4 5 1012.5 1012.4 0.2
02/06:30am 22.4 24.4 17.8 75 2.9 NNW 4 7 2 4 1012.3 1012.2 0.2
02/06:00am 21.4 24.3 18.2 82 2.0 CALM 0 6 0 3 1012.4 1012.3 0.2
02/05:30am 20.3 23.2 18.1 87 1.4 CALM 0 0 0 0 1012.0 1011.9 0.2
02/05:00am 19.5 20.8 17.6 89 1.2 WSW 7 7 4 4 1011.5 1011.4 0.2
02/04:30am 19.4 20.7 17.0 86 1.5 N 6 7 3 4 1011.0 1010.9 0.2
02/04:00am 19.3 20.4 16.5 84 1.7 NNE 6 9 3 5 1010.8 1010.7 0.2
02/03:30am 19.6 20.8 16.8 84 1.7 NE 6 7 3 4 1010.6 1010.5 0.2
02/03:00am 19.9 20.2 16.9 83 1.8 NNE 11 13 6 7 1010.4 1010.3 0.2
02/02:30am 20.1 20.8 17.1 83 1.8 NNE 9 11 5 6 1010.4 1010.3 0.2
02/02:00am 20.2 21.3 17.0 82 1.9 NNE 7 11 4 6 1010.3 1010.2 0.2
02/01:30am 20.5 21.7 17.3 82 2.0 N 7 9 4 5 1010.5 1010.4 0.2
02/01:00am 21.7 22.3 17.7 78 2.5 N 11 17 6 9 1010.6 1010.5 0.2
02/12:30am 21.4 22.9 18.0 81 2.1 NNE 7 9 4 5 1010.8 1010.7 0.2
02/12:00am 22.1 23.0 18.5 80 2.3 N 11 15 6 8 1011.1 1011.0 0.2
 
Date/Time
EST
Temp
°C
App
Temp
°C
Dew
Point
°C
Rel
Hum
%
Delta-T
°C
Wind Press
QNH
hPa
Press
MSL
hPa
Rain since
9am
mm
Dir  Spd
km/h
Gust
km/h
Spd
kts
Gust
kts
01/11:30pm 22.5 23.1 18.7 79 2.4 NNE 13 19 7 10 1011.3 1011.2 0.2
01/11:00pm 23.2 24.4 20.0 82 2.1 N 13 19 7 10 1011.5 1011.4 0.2
01/10:30pm 23.5 24.7 20.0 81 2.3 NNE 13 17 7 9 1011.7 1011.6 0.2
01/10:00pm 23.4 23.7 19.5 79 2.5 NNE 17 24 9 13 1011.5 1011.4 0.2
01/09:30pm 24.1 23.2 19.8 77 2.8 N 24 32 13 17 1011.7 1011.6 0.2
01/09:00pm 24.4 23.0 19.7 75 3.0 N 26 37 14 20 1011.5 1011.4 0.2
01/08:30pm 24.5 23.9 20.4 78 2.7 NNE 24 35 13 19 1011.2 1011.1 0.2
01/08:00pm 24.2 23.8 20.1 78 2.7 NE 22 33 12 18 1010.8 1010.7 0.2
01/07:30pm 24.5 23.2 19.8 75 3.0 NE 26 35 14 19 1010.4 1010.3 0.2
01/07:00pm 24.6 23.9 19.4 73 3.3 NE 22 30 12 16 1010.5 1010.4 0.2
01/06:30pm 24.5 23.5 19.6 74 3.2 NE 24 32 13 17 1009.4 1009.3 0.2

Other Formats:

Comma delimited format used in spreadsheet applications
http://www.bom.gov.au/fwo/IDQ60801/IDQ60801.94575.axf

JavaScript Object Notation format (JSON) in row-major order
http://www.bom.gov.au/fwo/IDQ60801/IDQ60801.94575.json